Entiat, WA (98822)

9:53 PM PDT on September 17, 2014 (GMT -0700)
RAWS ENTIAT V WA US | Change Station
CLOSE
Current Station
Personal Weather Station
Location: Entiat, WA
Elevation: 795 ft
Nearby Weather Stations

Elev 795 ft 47.67 °N, 120.21 °W | Updated 1 hour ago

Overcast
Overcast
74 °F
Feels Like 77 °F
N
0
Wind Variable Wind from North
Gusts 4.0 mph

Today
High -- | Low -- °F
--% Chance of Precip.
Yesterday
High -- | Low -- °F
Precip. -- in
6:41 AM 7:09 PM
Waning Crescent, 30% visible
Pressure 29.60 in
Visibility 10.0 miles
Clouds Clear
Heat Index 77 °F
Dew Point 49 °F
Humidity 42%
Rainfall 0.00 in
Snow Depth 0 in , 0 in , 0 in
UV 0 out of 12
Pollen 2.80 out of 12
Air Quality Not available.
Flu Activity Not available.
METAR KEAT 180355Z AUTO 34005KT 10SM CLR 24/07 A2963 RMK AO2 SLP024 T02440072

More Conditions Fewer Conditions

Pressure 29.60 in
Visibility 10.0 miles
Clouds Clear
Heat Index 77 °F
Dew Point 49 °F
Humidity 42%
Rainfall 0.00 in
Snow Depth 0 in , 0 in , 0 in
UV 0 out of 12
Pollen 2.80 out of 12
Air Quality Not available.
Flu Activity Not available.
METAR KEAT 180355Z AUTO 34005KT 10SM CLR 24/07 A2963 RMK AO2 SLP024 T02440072

More Conditions Fewer Conditions

10-Day Weather Forecast

Almanac

Astronomy

Sep. 17, 2014 Rise Set
Actual Time 6:41 AM PDT 7:09 PM PDT
Civil Twilight 6:10 AM PDT 7:39 PM PDT
Nautical Twilight 5:33 AM PDT 8:16 PM PDT
Astronomical Twilight 4:55 AM PDT 8:54 PM PDT
Moon 12:27 AM PDT (9/17) 3:39 PM PDT (9/17)
Length of Visible Light 13h 29m
Length of Day
12h 27m
Tomorrow will be 3m 25s shorter.
Waning Crescent, 30% of the Moon is Illuminated
Sep 18
Waning Crescent
Sep 24
New
Oct 1
First Quarter
Oct 8
Full
Oct 15
Last Quarter

Yesterday's Extremes

State Highs State Lows

Community

WunderPhotos

Upload Photos

1,754,295 photos uploaded!

Nearby

Snow Depth

Station Depth Elevation
Mount Crag 0 in 4050 ft
Grouse Camp 0 in 5380 ft
Lyman Lake 0 in 5900 ft
Bunchgrass Meadow 0 in 5000 ft
Morse Lake 0 in 5400 ft

Earthquake Activity

City Distance Mag. Time & Date
No recent earthquake activity has been reported nearby.
Minimum magnitude displayed is 2.5.

Coastal Water Temperatures

Place Temperature
No Stations Reporting

Nearby Weather Stations